Time;durP1;ratioP1;P1;durP2;ratioP2;P2;SDS_P1;SDS_P2;PMS_P1;PMS_P2;Temp;Humidity;BMP_temperature;BMP_pressure;BME280_temperature;BME280_humidity;BME280_pressure;Samples;Min_cycle;Max_cycle;Signal;HPM_P1;HPM_P2
2023/05/18 00:01:13;;;;;;;;;;;;;;;14.88;60.99;99962.81;5089193;28;20052;-40
2023/05/18 00:03:40;;;;;;;26.80;11.02;;;;;;;14.80;60.91;99964.06;5087232;28;19916;-39
2023/05/18 00:06:06;;;;;;;18.65;10.90;;;;;;;14.77;61.16;99961.56;5067590;28;20040;-39
2023/05/18 00:08:33;;;;;;;20.65;10.57;;;;;;;14.77;61.41;99966.78;5065614;28;20126;-40
2023/05/18 00:11:00;;;;;;;24.77;10.95;;;;;;;14.73;61.81;99967.88;5064608;28;20040;-40
2023/05/18 00:13:26;;;;;;;22.73;10.27;;;;;;;14.71;62.11;99968.84;5061239;28;20096;-40
2023/05/18 00:15:53;;;;;;;22.60;9.88;;;;;;;14.54;62.20;99946.09;5068621;28;20036;-39
2023/05/18 00:18:22;;;;;;;24.92;12.00;;;;;;;14.68;62.27;99969.00;5082539;28;20099;-41
2023/05/18 00:20:57;;;;;;;24.75;11.85;;;;;;;14.68;62.62;99971.63;5088144;28;20069;-40
2023/05/18 00:23:31;;;;;;;23.90;10.38;;;;;;;14.51;62.46;99945.38;5087872;28;20031;-41
2023/05/18 00:26:01;;;;;;;27.50;12.07;;;;;;;14.65;62.62;99967.41;5068234;28;20071;-39
2023/05/18 00:28:28;;;;;;;26.42;11.60;;;;;;;14.66;62.74;99976.06;5067769;28;20044;-40
2023/05/18 00:30:54;;;;;;;20.50;9.75;;;;;;;14.66;62.93;99970.84;5068003;28;20465;-40
2023/05/18 00:33:21;;;;;;;28.30;11.02;;;;;;;14.65;62.87;99975.25;5047912;28;20106;-41
2023/05/18 00:35:46;;;;;;;28.00;10.70;;;;;;;14.58;63.16;99960.72;5068281;28;20109;-41
2023/05/18 00:38:14;;;;;;;29.23;9.90;;;;;;;14.48;63.22;99953.38;5068314;28;20060;-40
2023/05/18 00:40:40;;;;;;;27.95;10.43;;;;;;;14.58;63.52;99971.19;5063732;28;20127;-40
2023/05/18 00:43:06;;;;;;;24.75;10.20;;;;;;;14.54;63.80;99964.41;5068367;28;20044;-40
2023/05/18 00:45:32;;;;;;;31.73;11.35;;;;;;;14.50;64.02;99956.78;5052095;28;20055;-40
2023/05/18 00:47:58;;;;;;;28.55;11.60;;;;;;;14.50;64.09;99972.47;5088086;28;20036;-39
2023/05/18 00:50:24;;;;;;;26.10;10.85;;;;;;;14.47;64.17;99968.22;5065879;28;20040;-40
2023/05/18 00:52:51;;;;;;;23.10;9.75;;;;;;;14.44;64.21;99978.00;5074947;28;20477;-40
2023/05/18 00:55:17;;;;;;;23.60;10.10;;;;;;;14.40;64.48;99970.25;5087592;28;20504;-39
2023/05/18 00:57:47;;;;;;;23.40;10.50;;;;;;;14.40;64.63;99982.50;5087511;28;20067;-39
2023/05/18 01:00:14;;;;;;;25.33;9.43;;;;;;;14.38;64.63;99966.88;5084922;28;20531;-41
2023/05/18 01:02:41;;;;;;;26.70;10.25;;;;;;;14.37;64.53;99975.66;5086078;28;20048;-40
2023/05/18 01:05:09;;;;;;;30.73;9.75;;;;;;;14.37;64.89;99977.41;5085865;28;20044;-39
2023/05/18 01:07:38;;;;;;;21.20;9.70;;;;;;;14.33;64.86;99979.28;5085807;28;20570;-40
2023/05/18 01:10:05;;;;;;;28.63;9.65;;;;;;;14.13;65.16;99950.53;5085635;28;20044;-40
2023/05/18 01:12:42;;;;;;;25.42;9.73;;;;;;;14.28;65.24;99981.25;5067885;28;20039;-40
2023/05/18 01:15:10;;;;;;;26.13;9.25;;;;;;;14.27;65.31;99976.94;5051236;28;20044;-40
2023/05/18 01:17:59;;;;;;;19.77;8.77;;;;;;;14.27;65.80;99976.09;5047588;28;20040;-40
2023/05/18 01:20:37;;;;;;;21.92;9.18;;;;;;;14.24;65.64;99977.06;5051051;28;20079;-38
2023/05/18 01:23:16;;;;;;;24.90;9.10;;;;;;;14.24;65.61;99982.28;5054463;28;20036;-39
2023/05/18 01:25:54;;;;;;;22.10;7.32;;;;;;;14.27;65.69;99973.47;5054683;28;20040;-41
2023/05/18 01:28:25;;;;;;;45.65;9.88;;;;;;;14.30;65.15;99973.31;5049053;28;20043;-38
2023/05/18 01:30:53;;;;;;;42.22;9.43;;;;;;;14.30;65.35;99968.09;5055940;28;20089;-39
2023/05/18 01:33:19;;;;;;;36.42;9.82;;;;;;;14.17;65.84;99948.66;5062323;28;20047;-39
2023/05/18 01:35:46;;;;;;;38.58;10.15;;;;;;;13.99;66.26;99925.03;5090518;28;20085;-40
2023/05/18 01:38:17;;;;;;;45.45;10.38;;;;;;;14.24;66.41;99982.28;5089669;28;20150;-40
2023/05/18 01:41:35;;;;;;;29.02;9.02;;;;;;;14.21;66.72;99987.69;5072965;28;20055;-40
2023/05/18 01:44:11;;;;;;;25.83;8.95;;;;;;;14.23;66.25;99979.78;5051362;28;20048;-38
2023/05/18 01:46:58;;;;;;;24.50;8.60;;;;;;;14.25;66.57;99973.53;5053048;28;20037;-40
2023/05/18 01:49:32;;;;;;;28.23;8.60;;;;;;;14.25;66.52;99981.38;5053643;28;20060;-39
2023/05/18 01:52:05;;;;;;;25.00;8.65;;;;;;;14.24;66.80;99978.81;5083356;28;20051;-39
2023/05/18 01:54:32;;;;;;;29.13;8.75;;;;;;;14.22;67.00;99978.91;5055941;28;20044;-39
2023/05/18 01:56:59;;;;;;;27.33;8.38;;;;;;;14.23;67.03;99980.63;5055980;28;20150;-41
2023/05/18 01:59:25;;;;;;;19.42;8.32;;;;;;;14.25;66.96;99980.53;5089551;28;20509;-40
2023/05/18 02:01:51;;;;;;;21.65;8.13;;;;;;;14.25;67.04;99984.00;5063439;28;20043;-39
2023/05/18 02:04:17;;;;;;;22.33;8.27;;;;;;;14.28;67.18;99985.66;5059379;28;20040;-40
2023/05/18 02:06:43;;;;;;;19.17;8.07;;;;;;;14.31;67.03;99980.25;5070588;28;20638;-39
2023/05/18 02:09:09;;;;;;;29.70;8.70;;;;;;;14.33;67.25;99986.28;5054820;28;20048;-39
2023/05/18 02:11:34;;;;;;;25.30;8.45;;;;;;;14.33;67.52;99986.28;5071641;28;20569;-40
2023/05/18 02:14:01;;;;;;;15.50;7.57;;;;;;;14.30;67.75;99989.88;5055825;28;20051;-40
2023/05/18 02:16:27;;;;;;;26.98;9.23;;;;;;;14.30;67.81;99981.19;5072859;28;20047;-40
2023/05/18 02:18:53;;;;;;;25.15;7.88;;;;;;;14.32;67.70;99984.59;5072326;28;20139;-41
2023/05/18 02:21:20;;;;;;;21.48;8.20;;;;;;;14.19;67.76;99962.50;5090317;28;20047;-40
2023/05/18 02:23:46;;;;;;;16.85;7.28;;;;;;;14.33;67.80;99981.91;5090277;28;20469;-40
2023/05/18 02:26:13;;;;;;;28.02;7.70;;;;;;;14.40;67.37;99990.34;5072033;28;20361;-39
2023/05/18 02:28:39;;;;;;;18.55;7.63;;;;;;;14.48;66.35;99990.00;5072098;28;20499;-39
2023/05/18 02:31:13;;;;;;;16.08;7.75;;;;;;;14.57;65.45;99990.44;5071993;28;20047;-41
2023/05/18 02:33:39;;;;;;;19.50;7.45;;;;;;;14.68;65.27;99989.94;5088732;28;20571;-39
2023/05/18 02:36:09;;;;;;;14.85;7.28;;;;;;;14.78;63.98;99986.81;5055376;28;20064;-39
2023/05/18 02:38:41;;;;;;;22.75;6.82;;;;;;;14.73;63.22;99961.78;5072097;28;20044;-40
2023/05/18 02:41:07;;;;;;;17.05;7.18;;;;;;;14.68;62.57;99937.59;5071484;28;20040;-39
2023/05/18 02:43:33;;;;;;;24.40;9.38;;;;;;;14.91;62.08;99968.78;5053540;28;20048;-40
2023/05/18 02:46:00;;;;;;;25.75;10.77;;;;;;;15.16;61.62;99997.25;5071115;28;20515;-40
2023/05/18 02:48:27;;;;;;;25.02;9.77;;;;;;;15.26;60.83;99996.75;5055495;28;20171;-39
2023/05/18 02:50:53;;;;;;;22.63;8.50;;;;;;;15.30;61.57;99994.81;5090016;28;20147;-39
2023/05/18 02:53:20;;;;;;;20.27;8.20;;;;;;;15.30;61.89;99989.56;5070739;28;20094;-39
2023/05/18 02:55:47;;;;;;;21.67;8.27;;;;;;;15.37;61.09;99992.75;5055077;28;20083;-39
2023/05/18 02:58:19;;;;;;;19.73;7.78;;;;;;;15.45;61.43;99996.69;5072119;28;20499;-39
2023/05/18 03:01:14;;;;;;;18.10;8.10;;;;;;;15.59;60.40;99988.19;5066309;28;20086;-39
2023/05/18 03:03:46;;;;;;;18.20;7.35;;;;;;;15.65;59.63;99985.22;5063962;28;20063;-39
2023/05/18 03:06:12;;;;;;;15.55;7.07;;;;;;;15.70;59.08;99985.03;5070016;28;20044;-39
2023/05/18 03:08:40;;;;;;;20.98;6.90;;;;;;;15.77;59.02;99989.88;5054047;28;20039;-39
2023/05/18 03:11:08;;;;;;;23.30;7.05;;;;;;;15.73;57.94;99962.13;5055052;28;20040;-40
2023/05/18 03:13:34;;;;;;;25.67;8.38;;;;;;;15.91;58.22;99987.38;5052927;28;20534;-40
2023/05/18 03:16:00;;;;;;;21.38;8.68;;;;;;;15.83;58.70;99967.72;5071150;28;20092;-40
2023/05/18 03:18:26;;;;;;;19.95;8.52;;;;;;;15.98;59.36;99986.16;5070835;28;20051;-40
2023/05/18 03:20:53;;;;;;;21.77;8.23;;;;;;;15.89;59.72;99967.41;5037893;28;20047;-40
2023/05/18 03:23:20;;;;;;;22.90;7.95;;;;;;;16.08;60.04;99997.00;5088895;28;20565;-40
2023/05/18 03:25:52;;;;;;;17.13;6.77;;;;;;;16.01;59.74;99972.91;5070862;28;20503;-40
2023/05/18 03:28:19;;;;;;;24.77;7.60;;;;;;;16.26;58.67;99993.44;5070638;28;20609;-39
2023/05/18 03:30:46;;;;;;;18.23;7.03;;;;;;;16.35;58.11;99994.72;5087870;28;21056;-40
2023/05/18 03:33:12;;;;;;;18.15;8.30;;;;;;;16.45;57.86;99991.53;5070000;28;20040;-41
2023/05/18 03:35:39;;;;;;;17.38;7.43;;;;;;;16.48;58.01;99999.25;5053287;28;20056;-39
2023/05/18 03:38:06;;;;;;;19.98;6.90;;;;;;;16.58;57.74;99999.59;5037947;28;20038;-39
2023/05/18 03:40:34;;;;;;;17.00;6.53;;;;;;;16.68;56.54;100003.44;5069935;28;20036;-40
2023/05/18 03:43:00;;;;;;;13.20;6.03;;;;;;;16.78;56.01;99999.41;5064619;28;20088;-41
2023/05/18 03:45:27;;;;;;;24.80;7.07;;;;;;;16.92;55.05;100007.34;5070511;28;20533;-41
2023/05/18 03:47:53;;;;;;;13.85;6.97;;;;;;;17.00;54.78;100000.84;5070807;28;20264;-40
2023/05/18 03:50:20;;;;;;;18.42;7.43;;;;;;;17.07;55.00;100012.69;5065573;28;20056;-40
2023/05/18 03:52:46;;;;;;;14.95;6.82;;;;;;;17.17;54.39;100012.06;5052845;28;20064;-40
2023/05/18 03:55:12;;;;;;;14.52;6.05;;;;;;;17.24;54.32;100009.97;5027133;28;20037;-40
2023/05/18 03:57:38;;;;;;;11.02;5.90;;;;;;;17.26;54.25;100008.97;5046495;28;20436;-40
2023/05/18 04:00:10;;;;;;;16.58;6.40;;;;;;;17.40;53.41;100017.81;5029983;28;20063;-39
2023/05/18 04:02:43;;;;;;;13.07;6.68;;;;;;;17.50;52.96;100019.84;5047541;28;20036;-40
2023/05/18 04:05:09;;;;;;;9.85;5.20;;;;;;;17.58;53.06;100008.91;5030102;28;20044;-40
2023/05/18 04:07:42;;;;;;;14.85;5.30;;;;;;;17.70;50.80;100001.16;5041820;28;20041;-39
2023/05/18 04:10:10;;;;;;;10.90;4.82;;;;;;;17.90;50.04;100012.31;5046847;28;20155;-40
2023/05/18 04:12:37;;;;;;;11.00;4.70;;;;;;;18.05;48.81;100004.34;5046278;28;20059;-41
2023/05/18 04:15:03;;;;;;;7.50;4.75;;;;;;;18.17;48.29;100018.53;5046749;28;20033;-39
2023/05/18 04:17:30;;;;;;;13.80;4.47;;;;;;;18.27;47.81;100011.78;5029010;28;20044;-40
2023/05/18 04:19:57;;;;;;;7.75;4.95;;;;;;;18.17;47.85;99993.06;5039682;28;20606;-41
2023/05/18 04:22:24;;;;;;;10.65;4.70;;;;;;;18.41;47.35;100011.81;5047896;28;20033;-40
2023/05/18 04:24:53;;;;;;;10.85;4.30;;;;;;;18.51;46.78;100006.81;5046268;28;20626;-40
2023/05/18 04:27:21;;;;;;;12.27;4.97;;;;;;;18.63;46.80;100011.38;5046392;28;20103;-40
2023/05/18 04:29:48;;;;;;;9.55;4.43;;;;;;;18.68;46.52;100011.91;5045757;28;20053;-39
2023/05/18 04:32:17;;;;;;;8.10;4.50;;;;;;;18.82;46.05;100013.69;5046404;28;20536;-41
2023/05/18 04:34:43;;;;;;;16.37;4.87;;;;;;;18.87;46.16;99998.44;5026267;28;20044;-39
2023/05/18 04:37:09;;;;;;;14.18;4.65;;;;;;;19.04;45.55;100009.59;5026709;28;20368;-41
2023/05/18 04:39:38;;;;;;;10.60;4.50;;;;;;;19.12;45.29;100003.81;5038518;28;20073;-42
2023/05/18 04:42:09;;;;;;;9.85;4.70;;;;;;;19.24;44.93;100004.81;5011902;28;20160;-41
2023/05/18 04:44:37;;;;;;;13.77;4.65;;;;;;;19.32;44.83;100011.28;5041160;28;20520;-41
2023/05/18 04:47:07;;;;;;;11.35;4.13;;;;;;;19.31;44.96;99999.03;5045751;28;20040;-42
2023/05/18 04:49:33;;;;;;;9.43;4.40;;;;;;;19.50;44.65;100008.41;5046271;28;20040;-40
2023/05/18 04:51:59;;;;;;;10.90;4.70;;;;;;;19.61;44.26;100005.94;5055714;28;20056;-41
2023/05/18 04:54:29;;;;;;;8.68;4.38;;;;;;;19.69;44.10;100001.81;5069796;28;20134;-40
2023/05/18 04:56:57;;;;;;;14.32;4.70;;;;;;;19.78;43.25;100003.84;5082313;28;20039;-41
2023/05/18 04:59:25;;;;;;;13.30;4.43;;;;;;;19.86;43.50;100000.69;5096693;28;20039;-40
2023/05/18 05:01:52;;;;;;;11.93;4.45;;;;;;;19.96;43.18;100003.56;5091234;28;20036;-42
2023/05/18 05:04:21;;;;;;;10.57;4.07;;;;;;;20.04;42.89;100010.03;5072981;28;20044;-40
2023/05/18 05:06:47;;;;;;;11.33;3.60;;;;;;;20.09;42.59;100005.28;5071907;28;20028;-40
2023/05/18 05:09:13;;;;;;;9.02;4.05;;;;;;;20.08;42.16;99981.59;5073204;28;20040;-40
2023/05/18 05:11:40;;;;;;;7.38;4.20;;;;;;;20.29;41.89;100001.25;5069717;28;20044;-47
2023/05/18 05:14:07;;;;;;;7.22;3.80;;;;;;;20.37;41.83;100001.59;5041692;28;20233;-40
2023/05/18 05:16:34;;;;;;;9.27;4.50;;;;;;;20.33;41.42;99981.63;5072981;28;20032;-42
2023/05/18 05:19:00;;;;;;;7.13;4.30;;;;;;;20.53;41.36;100004.00;5072870;28;20042;-41
2023/05/18 05:21:26;;;;;;;7.40;4.05;;;;;;;20.61;40.82;100001.69;5073029;28;20406;-41
2023/05/18 05:23:52;;;;;;;6.13;4.18;;;;;;;20.70;40.54;100001.88;5055425;28;20039;-41
2023/05/18 05:26:20;;;;;;;11.75;4.65;;;;;;;20.69;40.53;99991.41;5055901;28;20040;-43
2023/05/18 05:28:46;;;;;;;10.30;4.13;;;;;;;20.79;40.29;99991.56;5037305;28;20040;-41
2023/05/18 05:31:12;;;;;;;7.88;4.70;;;;;;;21.01;40.27;100003.16;5091330;28;20495;-41
2023/05/18 05:33:38;;;;;;;8.70;4.20;;;;;;;20.96;39.81;99980.66;5072023;28;20775;-42
2023/05/18 05:36:07;;;;;;;13.32;4.30;;;;;;;21.06;39.25;99985.16;5051725;28;20037;-42
2023/05/18 05:38:33;;;;;;;12.23;3.78;;;;;;;21.25;38.87;100002.38;5052961;28;20655;-40
2023/05/18 05:40:59;;;;;;;8.98;3.90;;;;;;;21.38;39.21;100004.00;5057339;28;20047;-40
2023/05/18 05:43:25;;;;;;;7.25;3.55;;;;;;;21.47;38.72;99992.72;5055168;28;20036;-39
2023/05/18 05:45:51;;;;;;;8.70;3.67;;;;;;;21.59;38.35;100006.00;5074796;28;20059;-42
2023/05/18 05:48:17;;;;;;;7.40;3.65;;;;;;;21.66;38.20;99996.66;5079072;28;20046;-40
2023/05/18 05:50:44;;;;;;;14.25;4.15;;;;;;;21.80;38.06;100002.59;5074629;28;20127;-41
2023/05/18 05:53:10;;;;;;;9.30;3.75;;;;;;;21.85;37.68;99999.59;5055443;28;20499;-40
2023/05/18 05:55:40;;;;;;;9.02;3.63;;;;;;;21.96;36.88;99997.00;5076563;28;20044;-40
2023/05/18 05:58:09;;;;;;;9.20;3.47;;;;;;;22.06;36.96;100000.63;5071256;28;20036;-42
2023/05/18 06:00:35;;;;;;;11.48;3.95;;;;;;;22.13;36.45;99996.56;5070935;28;20035;-40
2023/05/18 06:03:03;;;;;;;8.98;3.42;;;;;;;22.10;36.08;99975.59;5067881;28;20047;-39
2023/05/18 06:05:38;;;;;;;9.32;3.22;;;;;;;22.30;35.87;99993.44;5069454;28;20234;-41
2023/05/18 06:08:08;;;;;;;8.10;3.17;;;;;;;22.46;35.83;99995.72;5068223;28;20044;-41
2023/05/18 06:10:34;;;;;;;6.60;3.30;;;;;;;22.48;35.41;99977.06;5054637;28;20469;-40
2023/05/18 06:13:00;;;;;;;10.38;3.13;;;;;;;22.74;35.17;99995.28;5050356;28;20036;-42
2023/05/18 06:15:55;;;;;;;4.90;3.50;;;;;;;23.05;35.23;99993.66;5060928;28;20042;-42
2023/05/18 06:18:23;;;;;;;5.90;3.17;;;;;;;23.23;34.17;99993.97;5071665;28;20039;-40
2023/05/18 06:20:50;;;;;;;6.18;3.25;;;;;;;23.33;34.08;99976.31;5073632;28;20039;-40
2023/05/18 06:23:22;;;;;;;6.40;3.35;;;;;;;23.81;33.59;99989.16;5079923;28;20055;-41
2023/05/18 06:26:11;;;;;;;11.23;3.25;;;;;;;24.20;32.57;99995.59;5051713;28;20067;-42
2023/05/18 06:28:56;;;;;;;5.68;3.28;;;;;;;24.72;31.49;99994.56;5094759;28;20036;-45
2023/05/18 06:31:24;;;;;;;9.18;3.90;;;;;;;25.47;31.21;99994.88;5088670;28;20119;-42
2023/05/18 06:34:13;;;;;;;5.57;3.22;;;;;;;26.58;30.06;99991.63;5061540;28;20072;-39
2023/05/18 06:36:40;;;;;;;9.40;3.72;;;;;;;27.31;29.40;99988.81;5069973;28;20063;-39
2023/05/18 06:39:06;;;;;;;6.22;3.72;;;;;;;28.52;28.14;99993.44;5054143;28;20071;-41
2023/05/18 06:41:32;;;;;;;9.23;3.92;;;;;;;29.24;27.36;99995.56;5065984;28;20594;-38
2023/05/18 06:44:00;;;;;;;6.72;3.40;;;;;;;29.77;25.59;99988.94;5047380;28;20059;-38
2023/05/18 06:46:34;;;;;;;5.82;3.40;;;;;;;30.81;24.72;100008.53;5082271;28;20047;-38
2023/05/18 06:49:02;;;;;;;6.38;3.55;;;;;;;30.84;23.97;99996.56;5071193;28;20039;-61
2023/05/18 06:51:28;;;;;;;7.65;4.18;;;;;;;31.42;23.12;100001.47;5052324;28;20036;-61
2023/05/18 06:53:56;;;;;;;8.17;3.93;;;;;;;31.47;22.57;99993.72;5071600;28;20042;-41
2023/05/18 06:56:22;;;;;;;7.53;3.38;;;;;;;31.24;22.33;99984.81;5070024;28;20059;-46
2023/05/18 06:58:48;;;;;;;6.10;3.20;;;;;;;31.25;22.35;99994.56;5072394;28;20472;-37
2023/05/18 07:01:16;;;;;;;6.97;3.40;;;;;;;32.32;22.00;100005.94;5078787;28;20046;-43
2023/05/18 07:03:43;;;;;;;8.45;3.53;;;;;;;32.62;21.33;100012.16;5041679;28;20443;-34
2023/05/18 07:06:09;;;;;;;5.30;3.33;;;;;;;32.90;20.47;100003.44;5095025;28;20163;-38
2023/05/18 07:08:36;;;;;;;9.48;3.40;;;;;;;33.35;20.13;100005.00;5078125;28;20044;-35
2023/05/18 07:11:03;;;;;;;5.25;3.20;;;;;;;33.87;19.30;99988.50;5089591;28;20039;-39
2023/05/18 07:13:29;;;;;;;7.03;2.67;;;;;;;33.67;18.83;99990.16;5072905;28;20637;-36
2023/05/18 07:15:55;;;;;;;6.95;2.90;;;;;;;35.09;18.27;100011.28;5073303;28;20032;-36
2023/05/18 07:18:21;;;;;;;8.43;3.42;;;;;;;36.05;17.60;100005.44;5070131;28;20032;-36
2023/05/18 07:20:47;;;;;;;5.15;3.45;;;;;;;36.50;17.44;100003.69;5057319;28;20028;-37
2023/05/18 07:23:13;;;;;;;5.53;3.13;;;;;;;36.44;16.48;100009.13;5094889;28;20770;-35
2023/05/18 07:25:40;;;;;;;5.75;2.85;;;;;;;35.22;17.09;100000.53;5074950;28;20044;-37
2023/05/18 07:28:06;;;;;;;6.53;2.75;;;;;;;35.20;17.14;100002.59;5088517;28;20063;-38
2023/05/18 07:30:32;;;;;;;7.00;3.25;;;;;;;35.97;17.30;100002.91;5049852;28;20044;-36
2023/05/18 07:32:58;;;;;;;5.68;2.90;;;;;;;36.76;16.84;99974.84;5032622;28;20055;-37
2023/05/18 07:35:25;;;;;;;5.90;3.90;;;;;;;37.55;16.49;99993.44;5057204;28;20071;-36
2023/05/18 07:37:54;;;;;;;5.50;3.10;;;;;;;38.16;15.75;99999.81;5088600;28;20032;-37
2023/05/18 07:40:20;;;;;;;7.43;3.03;;;;;;;37.64;16.18;100005.69;5074516;28;20043;-39
2023/05/18 07:42:46;;;;;;;7.55;3.13;;;;;;;37.33;15.55;99965.81;5092896;28;20078;-39
2023/05/18 07:45:12;;;;;;;9.27;3.10;;;;;;;37.74;15.96;99996.00;5071041;28;20142;-38
2023/05/18 07:47:38;;;;;;;7.35;3.42;;;;;;;37.68;15.88;99996.91;5095220;28;20130;-37
2023/05/18 07:50:05;;;;;;;8.57;3.83;;;;;;;37.40;15.76;99973.91;5038786;28;20100;-38
2023/05/18 07:52:32;;;;;;;;;;;;;;;35.70;17.00;100001.25;5078333;28;20090;-38
2023/05/18 07:54:58;;;;;;;7.25;3.58;;;;;;;37.20;16.25;99977.59;5093668;28;19963;-38
2023/05/18 07:57:26;;;;;;;8.50;2.88;;;;;;;37.02;15.72;99999.13;5094103;28;20103;-38
2023/05/18 07:59:52;;;;;;;9.63;3.15;;;;;;;35.35;16.91;99999.72;5062618;28;20039;-38
2023/05/18 08:02:18;;;;;;;4.57;3.00;;;;;;;33.30;18.45;99988.56;5077836;28;20043;-38
2023/05/18 08:04:46;;;;;;;7.70;3.30;;;;;;;31.64;20.37;99981.84;5079698;28;20085;-38
2023/05/18 08:07:12;;;;;;;3.67;3.15;;;;;;;31.24;21.21;99972.22;5080067;28;20048;-40
2023/05/18 08:09:38;;;;;;;3.50;3.20;;;;;;;33.68;19.35;99991.84;5097956;28;20177;-38
2023/05/18 08:12:05;;;;;;;6.65;3.42;;;;;;;36.38;17.74;99999.97;5094296;28;20063;-38
2023/05/18 08:14:30;;;;;;;8.52;3.60;;;;;;;38.36;16.49;99987.94;5060704;28;20047;-40
2023/05/18 08:16:56;;;;;;;13.00;3.20;;;;;;;40.04;15.41;100007.84;5069448;28;20465;-39
2023/05/18 08:19:23;;;;;;;6.00;3.10;;;;;;;36.74;16.22;99983.22;5087260;28;20048;-38
2023/05/18 08:21:49;;;;;;;8.50;3.40;;;;;;;33.59;18.46;99985.75;5072657;28;20043;-38
2023/05/18 08:24:15;;;;;;;4.60;3.47;;;;;;;33.27;19.13;99960.16;5062626;28;20561;-38
2023/05/18 08:26:41;;;;;;;4.30;3.90;;;;;;;34.53;18.14;99984.41;5078098;28;20122;-37
2023/05/18 08:29:09;;;;;;;5.45;3.13;;;;;;;32.97;18.91;99975.56;5069352;28;20042;-38
2023/05/18 08:31:39;;;;;;;6.05;3.53;;;;;;;32.02;19.98;99982.69;5050300;28;20055;-38
2023/05/18 08:34:06;;;;;;;5.20;3.40;;;;;;;31.54;20.49;99978.53;5087801;28;20105;-38
2023/05/18 08:36:35;;;;;;;6.63;3.38;;;;;;;32.37;19.63;99979.31;5036425;28;20144;-38
2023/05/18 08:39:03;;;;;;;7.32;3.20;;;;;;;32.26;19.39;99979.75;5087533;28;20499;-38
2023/05/18 08:41:31;;;;;;;7.05;3.13;;;;;;;34.31;17.98;99963.94;5086934;28;20045;-38
2023/05/18 08:44:04;;;;;;;8.00;4.07;;;;;;;36.30;16.86;99970.41;5069084;28;20126;-38
2023/05/18 08:46:36;;;;;;;6.40;3.20;;;;;;;37.34;15.64;99965.59;5051144;28;20044;-38
2023/05/18 08:49:03;;;;;;;5.75;3.38;;;;;;;37.55;15.62;99982.59;5068669;28;20102;-38
2023/05/18 08:51:35;;;;;;;7.45;3.22;;;;;;;38.67;14.89;99982.38;5090812;28;20109;-37
2023/05/18 08:54:02;;;;;;;4.18;3.53;;;;;;;38.70;14.76;99973.75;5087473;28;20123;-37
2023/05/18 08:56:31;;;;;;;12.35;3.80;;;;;;;38.61;14.69;99980.56;5087875;28;20047;-38
2023/05/18 08:58:57;;;;;;;4.57;3.63;;;;;;;38.91;14.86;99973.28;5102583;28;20046;-41
2023/05/18 09:01:27;;;;;;;5.50;3.40;;;;;;;39.97;14.31;99977.97;5095320;28;20037;-38
2023/05/18 09:03:54;;;;;;;5.88;3.70;;;;;;;40.36;14.03;99965.50;5078075;28;20529;-39
2023/05/18 09:06:23;;;;;;;6.25;3.63;;;;;;;40.37;13.59;99950.81;5095306;28;20050;-37
2023/05/18 09:08:51;;;;;;;8.07;3.55;;;;;;;40.51;13.16;99965.03;5095517;28;20108;-37
2023/05/18 09:11:17;;;;;;;6.40;3.85;;;;;;;40.67;13.00;99969.72;5071757;28;20035;-38
2023/05/18 09:13:44;;;;;;;4.47;3.80;;;;;;;39.58;13.65;99974.00;5092744;28;20054;-38
2023/05/18 09:16:09;;;;;;;4.35;3.65;;;;;;;38.70;14.19;99962.88;5093613;28;20465;-37
2023/05/18 09:18:35;;;;;;;6.68;3.50;;;;;;;39.96;13.81;99972.75;5085705;28;20028;-38
2023/05/18 09:21:01;;;;;;;6.78;3.70;;;;;;;40.77;13.32;99961.78;5085234;28;20045;-37
2023/05/18 09:23:27;;;;;;;7.22;3.30;;;;;;;39.87;13.67;99960.56;5068589;28;20062;-38
2023/05/18 09:25:54;;;;;;;6.60;3.45;;;;;;;37.79;14.84;99949.16;5035514;28;20043;-39
2023/05/18 09:28:35;;;;;;;5.38;3.58;;;;;;;36.48;15.97;99954.28;5052370;28;20043;-39
2023/05/18 09:31:07;;;;;;;8.40;3.83;;;;;;;38.60;14.70;99954.44;5074183;28;20114;-38
2023/05/18 09:33:35;;;;;;;5.53;3.25;;;;;;;40.63;13.75;99957.66;5084139;28;20050;-39
2023/05/18 09:36:04;;;;;;;5.97;3.60;;;;;;;40.78;13.24;99924.41;5033758;28;20060;-39
2023/05/18 09:38:30;;;;;;;5.38;3.25;;;;;;;40.69;13.20;99961.31;5092576;28;20513;-38
2023/05/18 09:40:56;;;;;;;7.15;4.18;;;;;;;41.56;12.92;99950.97;5077814;28;20126;-37
2023/05/18 09:43:21;;;;;;;6.78;4.00;;;;;;;42.83;12.44;99948.97;5055983;28;20502;-38
2023/05/18 09:45:48;;;;;;;6.40;4.30;;;;;;;43.99;11.93;99962.91;5090153;28;20044;-36
2023/05/18 09:48:15;;;;;;;5.25;4.30;;;;;;;43.06;11.42;99954.16;5090784;28;20091;-38
2023/05/18 09:50:44;;;;;;;6.00;4.25;;;;;;;42.07;12.29;99955.34;5071954;28;20062;-39
2023/05/18 09:53:12;;;;;;;4.05;3.72;;;;;;;41.77;11.93;99951.03;5071317;28;20151;-38
2023/05/18 09:55:46;;;;;;;4.78;3.58;;;;;;;42.02;11.73;99955.25;5074839;28;20498;-38
2023/05/18 09:58:12;;;;;;;3.95;3.63;;;;;;;41.28;12.41;99952.66;5077424;28;20040;-40
2023/05/18 10:00:44;;;;;;;3.50;3.00;;;;;;;40.51;12.79;99952.19;5081652;28;20527;-40
2023/05/18 10:03:23;;;;;;;6.65;3.50;;;;;;;39.24;13.77;99948.34;5051942;28;20064;-39
2023/05/18 10:05:50;;;;;;;6.88;3.40;;;;;;;39.76;13.18;99951.28;5076787;28;20165;-39
2023/05/18 10:08:16;;;;;;;4.37;3.97;;;;;;;40.66;13.13;99938.09;5100749;28;20632;-40
2023/05/18 10:10:48;;;;;;;8.45;4.00;;;;;;;42.19;12.15;99945.94;5068603;28;20039;-38
2023/05/18 10:13:18;;;;;;;5.75;3.80;;;;;;;42.27;12.22;99947.41;5077997;28;20039;-39
2023/05/18 10:15:53;;;;;;;6.57;4.10;;;;;;;41.22;12.31;99942.72;5079933;28;20031;-38
2023/05/18 10:18:22;;;;;;;4.40;3.53;;;;;;;40.43;12.77;99929.97;5063947;28;20134;-39
2023/05/18 10:20:48;;;;;;;7.22;3.40;;;;;;;40.06;12.72;99930.22;5083591;28;20151;-40
2023/05/18 10:23:15;;;;;;;5.20;3.50;;;;;;;39.49;13.15;99929.13;5080292;28;20032;-39
2023/05/18 10:25:44;;;;;;;8.27;3.53;;;;;;;37.99;14.03;99922.69;5096490;28;20051;-41
2023/05/18 10:28:10;;;;;;;4.70;3.92;;;;;;;38.30;14.27;99924.47;5101768;28;20050;-48
2023/05/18 10:30:40;;;;;;;5.50;4.00;;;;;;;40.97;13.08;99928.59;5036936;28;20044;-38
2023/05/18 10:33:06;;;;;;;3.80;3.50;;;;;;;40.12;13.10;99921.09;5076974;28;20035;-40
2023/05/18 10:35:32;;;;;;;5.93;3.70;;;;;;;40.19;12.92;99931.88;5091713;28;20047;-40
2023/05/18 10:37:58;;;;;;;5.20;3.60;;;;;;;40.88;12.35;99922.69;5091739;28;20105;-40
2023/05/18 10:40:26;;;;;;;6.53;3.38;;;;;;;41.33;12.51;99927.34;5098008;28;20572;-40
2023/05/18 10:42:56;;;;;;;4.38;3.53;;;;;;;39.85;13.09;99922.66;5037875;28;20051;-40
2023/05/18 10:45:21;;;;;;;6.35;3.53;;;;;;;37.55;14.07;99904.72;5089442;28;20097;-41
2023/05/18 10:47:52;;;;;;;5.50;3.38;;;;;;;38.96;13.33;99915.50;5058091;28;20115;-40
2023/05/18 10:50:20;;;;;;;4.13;3.72;;;;;;;40.72;12.44;99909.03;5109298;28;20040;-40
2023/05/18 10:52:47;;;;;;;7.38;4.30;;;;;;;40.57;12.78;99914.97;5093167;28;20062;-40
2023/05/18 10:55:14;;;;;;;4.80;3.83;;;;;;;40.80;12.49;99923.09;5089376;28;20039;-42
2023/05/18 10:57:43;;;;;;;6.82;3.42;;;;;;;40.79;12.89;99905.06;5070925;28;20132;-39
2023/05/18 11:00:09;;;;;;;3.75;3.35;;;;;;;41.76;11.88;99894.78;5070930;28;20043;-40
2023/05/18 11:02:38;;;;;;;4.45;3.60;;;;;;;42.39;11.64;99900.84;5094765;28;20127;-39
2023/05/18 11:05:05;;;;;;;6.80;3.70;;;;;;;43.23;11.33;99884.78;5062742;28;20694;-42
2023/05/18 11:07:32;;;;;;;6.68;5.93;;;;;;;44.09;11.30;99904.56;5069894;28;20063;-40
2023/05/18 11:10:01;;;;;;;4.80;4.22;;;;;;;45.41;10.60;99908.50;5076866;28;20068;-40
2023/05/18 11:12:26;;;;;;;5.43;4.93;;;;;;;43.01;11.55;99898.53;5097221;28;20727;-41
2023/05/18 11:14:54;;;;;;;4.40;4.00;;;;;;;42.68;11.87;99903.13;5069547;28;20058;-39
2023/05/18 11:17:24;;;;;;;13.77;4.72;;;;;;;42.23;11.90;99892.44;5069980;28;20086;-40
2023/05/18 11:20:05;;;;;;;6.07;3.97;;;;;;;41.70;11.82;99890.31;5087478;28;20047;-40
2023/05/18 11:22:50;;;;;;;4.40;3.13;;;;;;;41.45;12.04;99884.44;5087716;28;20085;-41
2023/05/18 11:25:25;;;;;;;4.97;3.33;;;;;;;40.06;12.86;99877.63;5066440;28;20472;-41
2023/05/18 11:27:52;;;;;;;4.80;3.63;;;;;;;41.11;12.98;99888.22;5088454;28;20032;-40
2023/05/18 11:30:33;;;;;;;6.55;3.78;;;;;;;42.19;12.45;99891.25;5069672;28;20043;-40
2023/05/18 11:33:13;;;;;;;6.72;4.30;;;;;;;43.08;11.62;99891.78;5085726;28;20048;-41